sensor_id;sensor_type;location;lat;lon;timestamp;P1;durP1;ratioP1;P2;durP2;ratioP2
29776;SDS011;16677;52.224;7.484;2023-08-07T00:00:06;7.03;;;2.90;;
29776;SDS011;16677;52.224;7.484;2023-08-07T00:02:37;9.40;;;2.90;;
29776;SDS011;16677;52.224;7.484;2023-08-07T00:05:05;10.80;;;3.10;;
29776;SDS011;16677;52.224;7.484;2023-08-07T00:07:33;5.83;;;2.90;;
29776;SDS011;16677;52.224;7.484;2023-08-07T00:10:02;8.67;;;2.97;;
29776;SDS011;16677;52.224;7.484;2023-08-07T00:12:30;6.47;;;2.80;;
29776;SDS011;16677;52.224;7.484;2023-08-07T00:15:01;6.23;;;3.50;;
29776;SDS011;16677;52.224;7.484;2023-08-07T00:17:30;7.63;;;2.93;;
29776;SDS011;16677;52.224;7.484;2023-08-07T00:19:58;12.50;;;3.63;;
29776;SDS011;16677;52.224;7.484;2023-08-07T00:22:25;6.80;;;3.37;;
29776;SDS011;16677;52.224;7.484;2023-08-07T00:24:53;7.70;;;3.63;;
29776;SDS011;16677;52.224;7.484;2023-08-07T00:27:20;8.20;;;3.20;;
29776;SDS011;16677;52.224;7.484;2023-08-07T00:29:48;7.27;;;3.70;;
29776;SDS011;16677;52.224;7.484;2023-08-07T00:32:15;11.30;;;3.83;;
29776;SDS011;16677;52.224;7.484;2023-08-07T00:34:43;6.90;;;3.83;;
29776;SDS011;16677;52.224;7.484;2023-08-07T00:37:10;10.37;;;3.63;;
29776;SDS011;16677;52.224;7.484;2023-08-07T00:39:38;5.63;;;3.33;;
29776;SDS011;16677;52.224;7.484;2023-08-07T00:42:05;9.80;;;3.40;;
29776;SDS011;16677;52.224;7.484;2023-08-07T00:44:34;8.70;;;3.60;;
29776;SDS011;16677;52.224;7.484;2023-08-07T00:47:01;9.07;;;3.80;;
29776;SDS011;16677;52.224;7.484;2023-08-07T00:49:29;8.47;;;3.70;;
29776;SDS011;16677;52.224;7.484;2023-08-07T00:51:57;9.03;;;4.00;;
29776;SDS011;16677;52.224;7.484;2023-08-07T00:54:24;8.47;;;4.40;;
29776;SDS011;16677;52.224;7.484;2023-08-07T00:56:52;8.27;;;4.00;;
29776;SDS011;16677;52.224;7.484;2023-08-07T00:59:20;11.10;;;3.90;;
29776;SDS011;16677;52.224;7.484;2023-08-07T01:01:48;8.00;;;4.10;;
29776;SDS011;16677;52.224;7.484;2023-08-07T01:04:19;10.27;;;4.20;;
29776;SDS011;16677;52.224;7.484;2023-08-07T01:06:46;6.57;;;4.27;;
29776;SDS011;16677;52.224;7.484;2023-08-07T01:09:14;7.33;;;4.20;;
29776;SDS011;16677;52.224;7.484;2023-08-07T01:14:46;8.20;;;4.90;;
29776;SDS011;16677;52.224;7.484;2023-08-07T01:17:24;9.60;;;5.30;;
29776;SDS011;16677;52.224;7.484;2023-08-07T01:19:53;13.33;;;5.70;;
29776;SDS011;16677;52.224;7.484;2023-08-07T01:22:21;11.33;;;6.03;;
29776;SDS011;16677;52.224;7.484;2023-08-07T01:24:49;9.20;;;6.13;;
29776;SDS011;16677;52.224;7.484;2023-08-07T01:35:44;11.17;;;7.47;;
29776;SDS011;16677;52.224;7.484;2023-08-07T01:38:14;12.27;;;7.97;;
29776;SDS011;16677;52.224;7.484;2023-08-07T01:40:42;13.60;;;8.30;;
29776;SDS011;16677;52.224;7.484;2023-08-07T01:43:13;8.73;;;7.80;;
29776;SDS011;16677;52.224;7.484;2023-08-07T01:45:41;10.87;;;8.27;;
29776;SDS011;16677;52.224;7.484;2023-08-07T01:48:08;12.23;;;8.50;;
29776;SDS011;16677;52.224;7.484;2023-08-07T01:50:35;13.13;;;7.97;;
29776;SDS011;16677;52.224;7.484;2023-08-07T01:53:04;11.13;;;8.53;;
29776;SDS011;16677;52.224;7.484;2023-08-07T01:55:32;10.03;;;8.17;;
29776;SDS011;16677;52.224;7.484;2023-08-07T01:57:59;11.23;;;8.30;;
29776;SDS011;16677;52.224;7.484;2023-08-07T02:00:26;12.47;;;8.47;;
29776;SDS011;16677;52.224;7.484;2023-08-07T02:02:54;13.90;;;8.20;;
29776;SDS011;16677;52.224;7.484;2023-08-07T02:05:24;10.73;;;8.27;;
29776;SDS011;16677;52.224;7.484;2023-08-07T02:07:51;11.47;;;8.23;;
29776;SDS011;16677;52.224;7.484;2023-08-07T02:10:18;10.93;;;8.10;;
29776;SDS011;16677;52.224;7.484;2023-08-07T02:12:45;10.57;;;8.60;;
29776;SDS011;16677;52.224;7.484;2023-08-07T02:15:13;11.07;;;8.10;;
29776;SDS011;16677;52.224;7.484;2023-08-07T02:17:40;9.37;;;8.23;;
29776;SDS011;16677;52.224;7.484;2023-08-07T02:20:08;12.97;;;8.40;;
29776;SDS011;16677;52.224;7.484;2023-08-07T02:22:36;9.53;;;7.70;;
29776;SDS011;16677;52.224;7.484;2023-08-07T02:25:03;8.60;;;7.30;;
29776;SDS011;16677;52.224;7.484;2023-08-07T02:27:31;10.83;;;7.93;;
29776;SDS011;16677;52.224;7.484;2023-08-07T02:29:58;9.63;;;7.60;;
29776;SDS011;16677;52.224;7.484;2023-08-07T02:32:25;10.77;;;7.93;;
29776;SDS011;16677;52.224;7.484;2023-08-07T02:34:52;11.53;;;8.27;;
29776;SDS011;16677;52.224;7.484;2023-08-07T02:37:22;9.80;;;8.10;;
29776;SDS011;16677;52.224;7.484;2023-08-07T02:39:50;11.43;;;8.13;;
29776;SDS011;16677;52.224;7.484;2023-08-07T02:42:20;10.13;;;8.13;;
29776;SDS011;16677;52.224;7.484;2023-08-07T02:44:47;9.60;;;8.27;;
29776;SDS011;16677;52.224;7.484;2023-08-07T02:47:14;10.23;;;7.87;;
29776;SDS011;16677;52.224;7.484;2023-08-07T02:49:41;8.80;;;7.53;;
29776;SDS011;16677;52.224;7.484;2023-08-07T02:52:09;10.53;;;8.07;;
29776;SDS011;16677;52.224;7.484;2023-08-07T02:54:36;11.27;;;8.63;;
29776;SDS011;16677;52.224;7.484;2023-08-07T02:57:05;9.07;;;8.17;;
29776;SDS011;16677;52.224;7.484;2023-08-07T02:59:32;8.87;;;7.97;;
29776;SDS011;16677;52.224;7.484;2023-08-07T03:02:00;9.37;;;8.20;;
29776;SDS011;16677;52.224;7.484;2023-08-07T03:04:27;9.60;;;7.60;;
29776;SDS011;16677;52.224;7.484;2023-08-07T03:06:57;9.13;;;7.60;;
29776;SDS011;16677;52.224;7.484;2023-08-07T03:09:27;8.73;;;7.20;;
29776;SDS011;16677;52.224;7.484;2023-08-07T03:11:57;8.23;;;7.30;;
29776;SDS011;16677;52.224;7.484;2023-08-07T03:14:30;7.83;;;7.00;;
29776;SDS011;16677;52.224;7.484;2023-08-07T03:16:58;9.87;;;7.23;;
29776;SDS011;16677;52.224;7.484;2023-08-07T03:19:25;40.33;;;36.23;;
29776;SDS011;16677;52.224;7.484;2023-08-07T03:21:52;44.43;;;39.63;;
29776;SDS011;16677;52.224;7.484;2023-08-07T03:24:19;11.50;;;7.67;;
29776;SDS011;16677;52.224;7.484;2023-08-07T03:26:47;13.60;;;9.93;;
29776;SDS011;16677;52.224;7.484;2023-08-07T03:29:15;10.60;;;8.45;;
29776;SDS011;16677;52.224;7.484;2023-08-07T03:31:42;11.70;;;6.57;;
29776;SDS011;16677;52.224;7.484;2023-08-07T03:34:10;7.10;;;6.40;;
29776;SDS011;16677;52.224;7.484;2023-08-07T03:36:37;9.67;;;6.10;;
29776;SDS011;16677;52.224;7.484;2023-08-07T03:39:05;8.13;;;5.60;;
29776;SDS011;16677;52.224;7.484;2023-08-07T03:41:32;11.63;;;5.80;;
29776;SDS011;16677;52.224;7.484;2023-08-07T03:44:00;7.23;;;5.00;;
29776;SDS011;16677;52.224;7.484;2023-08-07T03:46:29;11.33;;;4.93;;
29776;SDS011;16677;52.224;7.484;2023-08-07T03:48:56;10.53;;;5.10;;
29776;SDS011;16677;52.224;7.484;2023-08-07T03:51:24;8.27;;;4.50;;
29776;SDS011;16677;52.224;7.484;2023-08-07T03:53:51;11.80;;;4.50;;
29776;SDS011;16677;52.224;7.484;2023-08-07T03:56:18;9.53;;;5.10;;
29776;SDS011;16677;52.224;7.484;2023-08-07T03:58:46;7.60;;;4.23;;
29776;SDS011;16677;52.224;7.484;2023-08-07T04:01:13;10.07;;;4.10;;
29776;SDS011;16677;52.224;7.484;2023-08-07T04:03:40;13.10;;;4.67;;
29776;SDS011;16677;52.224;7.484;2023-08-07T04:06:08;10.33;;;4.23;;
29776;SDS011;16677;52.224;7.484;2023-08-07T04:08:37;7.97;;;3.80;;
29776;SDS011;16677;52.224;7.484;2023-08-07T04:11:04;7.70;;;3.70;;
29776;SDS011;16677;52.224;7.484;2023-08-07T04:13:32;11.83;;;3.87;;
29776;SDS011;16677;52.224;7.484;2023-08-07T04:16:00;8.43;;;3.70;;
29776;SDS011;16677;52.224;7.484;2023-08-07T04:18:30;7.33;;;3.20;;
29776;SDS011;16677;52.224;7.484;2023-08-07T04:20:58;6.87;;;3.17;;
29776;SDS011;16677;52.224;7.484;2023-08-07T04:23:25;10.40;;;3.63;;
29776;SDS011;16677;52.224;7.484;2023-08-07T04:25:53;10.70;;;3.30;;
29776;SDS011;16677;52.224;7.484;2023-08-07T04:28:21;6.07;;;2.70;;
29776;SDS011;16677;52.224;7.484;2023-08-07T04:30:49;7.77;;;2.90;;
29776;SDS011;16677;52.224;7.484;2023-08-07T04:33:18;8.40;;;2.97;;
29776;SDS011;16677;52.224;7.484;2023-08-07T04:35:48;7.13;;;2.77;;
29776;SDS011;16677;52.224;7.484;2023-08-07T04:38:16;5.87;;;2.60;;
29776;SDS011;16677;52.224;7.484;2023-08-07T04:40:44;6.27;;;2.50;;
29776;SDS011;16677;52.224;7.484;2023-08-07T04:43:13;4.47;;;2.60;;
29776;SDS011;16677;52.224;7.484;2023-08-07T04:45:46;6.67;;;2.90;;
29776;SDS011;16677;52.224;7.484;2023-08-07T04:48:13;6.57;;;2.23;;
29776;SDS011;16677;52.224;7.484;2023-08-07T04:50:41;7.83;;;2.33;;
29776;SDS011;16677;52.224;7.484;2023-08-07T04:53:09;5.73;;;2.30;;
29776;SDS011;16677;52.224;7.484;2023-08-07T04:55:36;4.47;;;2.30;;
29776;SDS011;16677;52.224;7.484;2023-08-07T04:58:05;6.07;;;2.17;;
29776;SDS011;16677;52.224;7.484;2023-08-07T05:00:32;2.87;;;1.70;;
29776;SDS011;16677;52.224;7.484;2023-08-07T05:02:59;6.40;;;2.20;;
29776;SDS011;16677;52.224;7.484;2023-08-07T05:05:28;3.53;;;1.90;;
29776;SDS011;16677;52.224;7.484;2023-08-07T05:07:55;3.07;;;1.80;;
29776;SDS011;16677;52.224;7.484;2023-08-07T05:10:24;3.93;;;1.67;;
29776;SDS011;16677;52.224;7.484;2023-08-07T05:12:51;4.17;;;1.90;;
29776;SDS011;16677;52.224;7.484;2023-08-07T05:15:22;4.03;;;1.87;;
29776;SDS011;16677;52.224;7.484;2023-08-07T05:17:50;6.70;;;2.57;;
29776;SDS011;16677;52.224;7.484;2023-08-07T05:20:19;3.07;;;2.30;;
29776;SDS011;16677;52.224;7.484;2023-08-07T05:22:46;5.17;;;2.77;;
29776;SDS011;16677;52.224;7.484;2023-08-07T05:25:14;4.10;;;2.20;;
29776;SDS011;16677;52.224;7.484;2023-08-07T05:27:42;7.50;;;2.47;;
29776;SDS011;16677;52.224;7.484;2023-08-07T05:30:11;5.77;;;2.03;;
29776;SDS011;16677;52.224;7.484;2023-08-07T05:32:39;5.53;;;2.73;;
29776;SDS011;16677;52.224;7.484;2023-08-07T05:35:07;5.17;;;2.40;;
29776;SDS011;16677;52.224;7.484;2023-08-07T05:37:34;4.93;;;2.30;;
29776;SDS011;16677;52.224;7.484;2023-08-07T05:40:02;2.83;;;2.37;;
29776;SDS011;16677;52.224;7.484;2023-08-07T05:42:30;6.60;;;2.83;;
29776;SDS011;16677;52.224;7.484;2023-08-07T05:44:58;7.97;;;2.97;;
29776;SDS011;16677;52.224;7.484;2023-08-07T05:47:25;8.10;;;3.60;;
29776;SDS011;16677;52.224;7.484;2023-08-07T05:49:53;8.43;;;3.33;;
29776;SDS011;16677;52.224;7.484;2023-08-07T05:52:20;5.80;;;3.53;;
29776;SDS011;16677;52.224;7.484;2023-08-07T05:54:47;9.07;;;3.53;;
29776;SDS011;16677;52.224;7.484;2023-08-07T05:57:14;8.93;;;3.80;;
29776;SDS011;16677;52.224;7.484;2023-08-07T05:59:41;8.80;;;4.13;;
29776;SDS011;16677;52.224;7.484;2023-08-07T06:02:09;11.43;;;4.10;;
29776;SDS011;16677;52.224;7.484;2023-08-07T06:04:38;6.80;;;3.73;;
29776;SDS011;16677;52.224;7.484;2023-08-07T06:07:07;8.17;;;3.67;;
29776;SDS011;16677;52.224;7.484;2023-08-07T06:09:35;9.87;;;3.97;;
29776;SDS011;16677;52.224;7.484;2023-08-07T06:12:02;10.37;;;3.90;;
29776;SDS011;16677;52.224;7.484;2023-08-07T06:14:30;9.00;;;4.33;;
29776;SDS011;16677;52.224;7.484;2023-08-07T06:16:57;11.47;;;4.63;;
29776;SDS011;16677;52.224;7.484;2023-08-07T06:19:26;7.13;;;4.20;;
29776;SDS011;16677;52.224;7.484;2023-08-07T06:21:58;7.47;;;3.47;;
29776;SDS011;16677;52.224;7.484;2023-08-07T06:24:26;11.77;;;4.50;;
29776;SDS011;16677;52.224;7.484;2023-08-07T06:26:54;7.50;;;3.47;;
29776;SDS011;16677;52.224;7.484;2023-08-07T06:29:21;8.43;;;3.63;;
29776;SDS011;16677;52.224;7.484;2023-08-07T06:31:48;7.60;;;3.77;;
29776;SDS011;16677;52.224;7.484;2023-08-07T06:34:16;9.57;;;3.33;;
29776;SDS011;16677;52.224;7.484;2023-08-07T06:36:43;6.93;;;3.20;;
29776;SDS011;16677;52.224;7.484;2023-08-07T06:39:11;7.33;;;3.50;;
29776;SDS011;16677;52.224;7.484;2023-08-07T06:41:38;8.63;;;3.87;;
29776;SDS011;16677;52.224;7.484;2023-08-07T06:44:05;10.13;;;3.40;;
29776;SDS011;16677;52.224;7.484;2023-08-07T06:46:33;8.73;;;3.80;;
29776;SDS011;16677;52.224;7.484;2023-08-07T06:49:00;10.80;;;3.80;;
29776;SDS011;16677;52.224;7.484;2023-08-07T06:51:27;8.90;;;4.37;;
29776;SDS011;16677;52.224;7.484;2023-08-07T06:53:54;12.53;;;4.73;;
29776;SDS011;16677;52.224;7.484;2023-08-07T06:56:21;9.63;;;4.17;;
29776;SDS011;16677;52.224;7.484;2023-08-07T06:58:48;13.20;;;3.90;;
29776;SDS011;16677;52.224;7.484;2023-08-07T07:01:16;9.27;;;3.23;;
29776;SDS011;16677;52.224;7.484;2023-08-07T07:03:43;16.63;;;4.50;;
29776;SDS011;16677;52.224;7.484;2023-08-07T07:06:13;7.70;;;3.73;;
29776;SDS011;16677;52.224;7.484;2023-08-07T07:08:40;10.32;;;4.50;;
29776;SDS011;16677;52.224;7.484;2023-08-07T07:11:08;11.73;;;5.07;;
29776;SDS011;16677;52.224;7.484;2023-08-07T07:13:35;13.30;;;6.03;;
29776;SDS011;16677;52.224;7.484;2023-08-07T07:16:03;8.48;;;3.80;;
29776;SDS011;16677;52.224;7.484;2023-08-07T07:18:30;8.90;;;3.50;;
29776;SDS011;16677;52.224;7.484;2023-08-07T07:20:57;9.88;;;4.72;;
29776;SDS011;16677;52.224;7.484;2023-08-07T07:23:26;9.73;;;4.25;;
29776;SDS011;16677;52.224;7.484;2023-08-07T07:25:54;7.55;;;3.47;;
29776;SDS011;16677;52.224;7.484;2023-08-07T07:28:23;8.30;;;3.25;;
29776;SDS011;16677;52.224;7.484;2023-08-07T07:30:50;7.15;;;3.70;;
29776;SDS011;16677;52.224;7.484;2023-08-07T07:33:17;8.10;;;3.80;;
29776;SDS011;16677;52.224;7.484;2023-08-07T07:35:45;9.90;;;4.70;;
29776;SDS011;16677;52.224;7.484;2023-08-07T07:38:12;7.00;;;3.78;;
29776;SDS011;16677;52.224;7.484;2023-08-07T07:40:40;10.10;;;4.32;;
29776;SDS011;16677;52.224;7.484;2023-08-07T07:43:10;9.98;;;5.82;;
29776;SDS011;16677;52.224;7.484;2023-08-07T07:45:37;8.30;;;3.85;;
29776;SDS011;16677;52.224;7.484;2023-08-07T07:48:05;10.02;;;8.95;;
29776;SDS011;16677;52.224;7.484;2023-08-07T07:50:34;11.15;;;6.70;;
29776;SDS011;16677;52.224;7.484;2023-08-07T07:53:02;11.93;;;5.05;;
29776;SDS011;16677;52.224;7.484;2023-08-07T07:55:29;10.50;;;5.47;;
29776;SDS011;16677;52.224;7.484;2023-08-07T07:57:56;9.75;;;7.63;;
29776;SDS011;16677;52.224;7.484;2023-08-07T08:00:23;10.90;;;4.63;;
29776;SDS011;16677;52.224;7.484;2023-08-07T08:02:53;13.07;;;6.38;;
29776;SDS011;16677;52.224;7.484;2023-08-07T08:05:21;17.70;;;8.20;;
29776;SDS011;16677;52.224;7.484;2023-08-07T08:07:48;25.83;;;14.18;;
29776;SDS011;16677;52.224;7.484;2023-08-07T08:10:15;13.75;;;8.57;;
29776;SDS011;16677;52.224;7.484;2023-08-07T08:12:43;15.60;;;8.70;;
29776;SDS011;16677;52.224;7.484;2023-08-07T08:15:10;17.38;;;8.52;;
29776;SDS011;16677;52.224;7.484;2023-08-07T08:17:37;17.83;;;9.15;;
29776;SDS011;16677;52.224;7.484;2023-08-07T08:20:07;14.53;;;8.13;;
29776;SDS011;16677;52.224;7.484;2023-08-07T08:22:35;11.63;;;6.10;;
29776;SDS011;16677;52.224;7.484;2023-08-07T08:25:02;16.17;;;9.40;;
29776;SDS011;16677;52.224;7.484;2023-08-07T08:27:33;15.93;;;9.57;;
29776;SDS011;16677;52.224;7.484;2023-08-07T08:30:01;15.80;;;8.00;;
29776;SDS011;16677;52.224;7.484;2023-08-07T08:32:29;27.63;;;13.75;;
29776;SDS011;16677;52.224;7.484;2023-08-07T08:34:56;20.30;;;10.30;;
29776;SDS011;16677;52.224;7.484;2023-08-07T08:37:24;22.70;;;10.25;;
29776;SDS011;16677;52.224;7.484;2023-08-07T08:39:51;18.20;;;9.23;;
29776;SDS011;16677;52.224;7.484;2023-08-07T08:42:18;23.15;;;12.07;;
29776;SDS011;16677;52.224;7.484;2023-08-07T08:47:34;15.23;;;8.25;;
29776;SDS011;16677;52.224;7.484;2023-08-07T08:50:07;13.00;;;6.50;;
29776;SDS011;16677;52.224;7.484;2023-08-07T08:52:40;15.60;;;7.72;;
29776;SDS011;16677;52.224;7.484;2023-08-07T08:55:11;10.30;;;5.72;;
29776;SDS011;16677;52.224;7.484;2023-08-07T08:57:41;11.95;;;5.50;;
29776;SDS011;16677;52.224;7.484;2023-08-07T09:00:11;11.48;;;6.18;;
29776;SDS011;16677;52.224;7.484;2023-08-07T09:02:48;16.13;;;7.80;;
29776;SDS011;16677;52.224;7.484;2023-08-07T09:05:17;11.20;;;4.00;;
29776;SDS011;16677;52.224;7.484;2023-08-07T09:07:47;11.75;;;5.47;;
29776;SDS011;16677;52.224;7.484;2023-08-07T09:10:15;9.85;;;4.45;;
29776;SDS011;16677;52.224;7.484;2023-08-07T09:12:50;11.82;;;6.25;;
29776;SDS011;16677;52.224;7.484;2023-08-07T09:15:27;7.73;;;4.10;;
29776;SDS011;16677;52.224;7.484;2023-08-07T09:17:56;9.93;;;5.13;;
29776;SDS011;16677;52.224;7.484;2023-08-07T09:20:25;7.20;;;3.75;;
29776;SDS011;16677;52.224;7.484;2023-08-07T09:22:52;7.80;;;3.70;;
29776;SDS011;16677;52.224;7.484;2023-08-07T09:25:27;7.57;;;3.60;;
29776;SDS011;16677;52.224;7.484;2023-08-07T09:27:56;12.15;;;5.00;;
29776;SDS011;16677;52.224;7.484;2023-08-07T09:30:28;11.43;;;4.90;;
29776;SDS011;16677;52.224;7.484;2023-08-07T09:32:57;13.80;;;5.57;;
29776;SDS011;16677;52.224;7.484;2023-08-07T09:35:25;8.98;;;3.42;;
29776;SDS011;16677;52.224;7.484;2023-08-07T09:37:53;10.57;;;5.32;;
29776;SDS011;16677;52.224;7.484;2023-08-07T09:40:20;8.25;;;3.75;;
29776;SDS011;16677;52.224;7.484;2023-08-07T09:42:52;10.35;;;5.85;;
29776;SDS011;16677;52.224;7.484;2023-08-07T09:50:33;9.40;;;3.97;;
29776;SDS011;16677;52.224;7.484;2023-08-07T09:53:00;8.30;;;3.60;;
29776;SDS011;16677;52.224;7.484;2023-08-07T09:55:28;9.85;;;3.80;;
29776;SDS011;16677;52.224;7.484;2023-08-07T09:57:55;7.50;;;3.33;;
29776;SDS011;16677;52.224;7.484;2023-08-07T10:00:22;9.35;;;3.30;;
29776;SDS011;16677;52.224;7.484;2023-08-07T10:02:50;9.52;;;3.42;;
29776;SDS011;16677;52.224;7.484;2023-08-07T10:05:18;6.18;;;3.28;;
29776;SDS011;16677;52.224;7.484;2023-08-07T10:07:45;6.43;;;3.30;;
29776;SDS011;16677;52.224;7.484;2023-08-07T10:10:13;7.75;;;3.63;;
29776;SDS011;16677;52.224;7.484;2023-08-07T10:12:41;9.07;;;3.83;;
29776;SDS011;16677;52.224;7.484;2023-08-07T10:15:08;9.48;;;4.50;;
29776;SDS011;16677;52.224;7.484;2023-08-07T10:17:36;12.23;;;4.38;;
29776;SDS011;16677;52.224;7.484;2023-08-07T10:20:06;8.43;;;3.58;;
29776;SDS011;16677;52.224;7.484;2023-08-07T10:22:34;7.03;;;3.80;;
29776;SDS011;16677;52.224;7.484;2023-08-07T10:25:05;9.37;;;3.40;;
29776;SDS011;16677;52.224;7.484;2023-08-07T10:27:35;10.37;;;3.63;;
29776;SDS011;16677;52.224;7.484;2023-08-07T10:30:06;10.13;;;4.00;;
29776;SDS011;16677;52.224;7.484;2023-08-07T10:32:41;9.70;;;4.37;;
29776;SDS011;16677;52.224;7.484;2023-08-07T10:35:22;10.87;;;3.57;;
29776;SDS011;16677;52.224;7.484;2023-08-07T10:38:05;9.60;;;4.93;;
29776;SDS011;16677;52.224;7.484;2023-08-07T10:40:57;11.27;;;4.07;;
29776;SDS011;16677;52.224;7.484;2023-08-07T10:43:30;8.60;;;3.63;;
29776;SDS011;16677;52.224;7.484;2023-08-07T10:46:06;16.83;;;4.70;;
29776;SDS011;16677;52.224;7.484;2023-08-07T10:48:54;9.70;;;3.80;;
29776;SDS011;16677;52.224;7.484;2023-08-07T10:51:29;9.63;;;4.00;;
29776;SDS011;16677;52.224;7.484;2023-08-07T10:54:00;8.37;;;4.33;;
29776;SDS011;16677;52.224;7.484;2023-08-07T10:56:35;11.30;;;4.50;;
29776;SDS011;16677;52.224;7.484;2023-08-07T11:01:40;13.23;;;9.00;;
29776;SDS011;16677;52.224;7.484;2023-08-07T11:04:09;9.13;;;7.77;;
29776;SDS011;16677;52.224;7.484;2023-08-07T11:06:39;10.00;;;5.10;;
29776;SDS011;16677;52.224;7.484;2023-08-07T11:09:13;10.83;;;5.30;;
29776;SDS011;16677;52.224;7.484;2023-08-07T11:14:13;12.73;;;5.57;;
29776;SDS011;16677;52.224;7.484;2023-08-07T11:16:43;11.90;;;3.67;;
29776;SDS011;16677;52.224;7.484;2023-08-07T11:21:43;12.15;;;4.55;;
29776;SDS011;16677;52.224;7.484;2023-08-07T11:24:14;9.85;;;3.75;;
29776;SDS011;16677;52.224;7.484;2023-08-07T11:26:45;7.95;;;3.42;;
29776;SDS011;16677;52.224;7.484;2023-08-07T11:29:18;6.72;;;3.08;;
29776;SDS011;16677;52.224;7.484;2023-08-07T11:31:45;8.02;;;4.40;;
29776;SDS011;16677;52.224;7.484;2023-08-07T11:34:13;8.73;;;4.20;;
29776;SDS011;16677;52.224;7.484;2023-08-07T11:36:41;9.17;;;3.97;;
29776;SDS011;16677;52.224;7.484;2023-08-07T11:39:09;9.13;;;3.77;;
29776;SDS011;16677;52.224;7.484;2023-08-07T11:41:37;7.80;;;3.00;;
29776;SDS011;16677;52.224;7.484;2023-08-07T11:44:07;6.33;;;3.10;;
29776;SDS011;16677;52.224;7.484;2023-08-07T11:46:35;11.43;;;2.83;;
29776;SDS011;16677;52.224;7.484;2023-08-07T11:49:02;11.10;;;3.57;;
29776;SDS011;16677;52.224;7.484;2023-08-07T11:51:30;7.10;;;3.50;;
29776;SDS011;16677;52.224;7.484;2023-08-07T11:53:59;6.03;;;2.77;;
29776;SDS011;16677;52.224;7.484;2023-08-07T11:56:26;7.47;;;2.90;;
29776;SDS011;16677;52.224;7.484;2023-08-07T11:58:54;7.07;;;2.90;;
29776;SDS011;16677;52.224;7.484;2023-08-07T12:01:25;4.13;;;2.60;;
29776;SDS011;16677;52.224;7.484;2023-08-07T12:06:32;13.07;;;4.37;;
29776;SDS011;16677;52.224;7.484;2023-08-07T12:09:00;8.00;;;3.00;;
29776;SDS011;16677;52.224;7.484;2023-08-07T12:11:29;7.00;;;2.70;;
29776;SDS011;16677;52.224;7.484;2023-08-07T12:13:59;5.90;;;2.97;;
29776;SDS011;16677;52.224;7.484;2023-08-07T12:16:34;8.80;;;3.20;;
29776;SDS011;16677;52.224;7.484;2023-08-07T12:19:02;7.87;;;2.80;;
29776;SDS011;16677;52.224;7.484;2023-08-07T12:21:30;9.63;;;3.10;;
29776;SDS011;16677;52.224;7.484;2023-08-07T12:23:59;9.03;;;3.63;;
29776;SDS011;16677;52.224;7.484;2023-08-07T12:26:27;8.77;;;3.47;;
29776;SDS011;16677;52.224;7.484;2023-08-07T12:28:54;5.07;;;3.13;;
29776;SDS011;16677;52.224;7.484;2023-08-07T12:31:21;5.70;;;2.30;;
29776;SDS011;16677;52.224;7.484;2023-08-07T12:33:48;5.20;;;3.00;;
29776;SDS011;16677;52.224;7.484;2023-08-07T12:36:16;5.13;;;3.43;;
29776;SDS011;16677;52.224;7.484;2023-08-07T12:38:46;9.57;;;2.77;;
29776;SDS011;16677;52.224;7.484;2023-08-07T12:41:14;5.93;;;2.23;;
29776;SDS011;16677;52.224;7.484;2023-08-07T12:43:44;8.47;;;3.10;;
29776;SDS011;16677;52.224;7.484;2023-08-07T12:46:11;5.57;;;3.23;;
29776;SDS011;16677;52.224;7.484;2023-08-07T12:48:41;4.50;;;2.33;;
29776;SDS011;16677;52.224;7.484;2023-08-07T12:51:08;11.93;;;4.37;;
29776;SDS011;16677;52.224;7.484;2023-08-07T12:53:35;5.03;;;2.60;;
29776;SDS011;16677;52.224;7.484;2023-08-07T12:56:03;6.20;;;2.80;;
29776;SDS011;16677;52.224;7.484;2023-08-07T12:58:32;17.57;;;8.77;;
29776;SDS011;16677;52.224;7.484;2023-08-07T13:00:59;6.67;;;3.03;;
29776;SDS011;16677;52.224;7.484;2023-08-07T13:03:26;6.27;;;3.10;;
29776;SDS011;16677;52.224;7.484;2023-08-07T13:05:53;11.87;;;5.03;;
29776;SDS011;16677;52.224;7.484;2023-08-07T13:08:20;25.03;;;13.57;;
29776;SDS011;16677;52.224;7.484;2023-08-07T13:10:47;24.67;;;11.80;;
29776;SDS011;16677;52.224;7.484;2023-08-07T13:13:15;17.50;;;8.60;;
29776;SDS011;16677;52.224;7.484;2023-08-07T13:15:42;9.73;;;4.53;;
29776;SDS011;16677;52.224;7.484;2023-08-07T13:18:10;31.97;;;13.53;;
29776;SDS011;16677;52.224;7.484;2023-08-07T13:20:37;9.77;;;4.13;;
29776;SDS011;16677;52.224;7.484;2023-08-07T13:23:04;7.47;;;3.60;;
29776;SDS011;16677;52.224;7.484;2023-08-07T13:25:33;13.17;;;6.70;;
29776;SDS011;16677;52.224;7.484;2023-08-07T13:28:00;5.27;;;2.23;;
29776;SDS011;16677;52.224;7.484;2023-08-07T13:30:31;5.63;;;2.20;;
29776;SDS011;16677;52.224;7.484;2023-08-07T13:33:02;5.90;;;2.50;;
29776;SDS011;16677;52.224;7.484;2023-08-07T13:35:30;5.47;;;2.53;;
29776;SDS011;16677;52.224;7.484;2023-08-07T13:37:59;5.77;;;2.80;;
29776;SDS011;16677;52.224;7.484;2023-08-07T13:40:31;4.33;;;2.37;;
29776;SDS011;16677;52.224;7.484;2023-08-07T13:42:58;15.47;;;4.10;;
29776;SDS011;16677;52.224;7.484;2023-08-07T13:45:29;8.30;;;2.97;;
29776;SDS011;16677;52.224;7.484;2023-08-07T13:47:56;4.27;;;2.30;;
29776;SDS011;16677;52.224;7.484;2023-08-07T13:50:24;3.93;;;2.13;;
29776;SDS011;16677;52.224;7.484;2023-08-07T13:52:51;6.67;;;3.07;;
29776;SDS011;16677;52.224;7.484;2023-08-07T13:55:38;4.33;;;2.10;;
29776;SDS011;16677;52.224;7.484;2023-08-07T13:58:05;5.83;;;2.63;;
29776;SDS011;16677;52.224;7.484;2023-08-07T14:00:32;7.37;;;2.30;;
29776;SDS011;16677;52.224;7.484;2023-08-07T14:03:01;4.17;;;1.90;;
29776;SDS011;16677;52.224;7.484;2023-08-07T14:05:28;5.27;;;2.20;;
29776;SDS011;16677;52.224;7.484;2023-08-07T14:07:55;6.60;;;3.00;;
29776;SDS011;16677;52.224;7.484;2023-08-07T14:10:24;4.07;;;2.17;;
29776;SDS011;16677;52.224;7.484;2023-08-07T14:12:51;7.60;;;2.60;;
29776;SDS011;16677;52.224;7.484;2023-08-07T14:15:18;2.43;;;1.83;;
29776;SDS011;16677;52.224;7.484;2023-08-07T14:17:45;2.37;;;1.63;;
29776;SDS011;16677;52.224;7.484;2023-08-07T14:20:12;6.10;;;2.23;;
29776;SDS011;16677;52.224;7.484;2023-08-07T14:22:39;3.77;;;1.87;;
29776;SDS011;16677;52.224;7.484;2023-08-07T14:25:07;4.17;;;1.93;;
29776;SDS011;16677;52.224;7.484;2023-08-07T14:27:37;3.47;;;1.80;;
29776;SDS011;16677;52.224;7.484;2023-08-07T14:30:05;4.73;;;2.43;;
29776;SDS011;16677;52.224;7.484;2023-08-07T14:32:33;4.20;;;2.13;;
29776;SDS011;16677;52.224;7.484;2023-08-07T14:35:00;3.20;;;1.83;;
29776;SDS011;16677;52.224;7.484;2023-08-07T14:37:27;13.27;;;4.90;;
29776;SDS011;16677;52.224;7.484;2023-08-07T14:39:54;6.70;;;3.03;;
29776;SDS011;16677;52.224;7.484;2023-08-07T14:42:22;3.67;;;2.20;;
29776;SDS011;16677;52.224;7.484;2023-08-07T14:44:50;8.60;;;2.50;;
29776;SDS011;16677;52.224;7.484;2023-08-07T14:47:17;35.80;;;9.50;;
29776;SDS011;16677;52.224;7.484;2023-08-07T14:49:45;4.97;;;1.90;;
29776;SDS011;16677;52.224;7.484;2023-08-07T14:52:12;10.37;;;3.77;;
29776;SDS011;16677;52.224;7.484;2023-08-07T14:54:39;6.77;;;3.00;;
29776;SDS011;16677;52.224;7.484;2023-08-07T15:04:28;8.32;;;4.93;;
29776;SDS011;16677;52.224;7.484;2023-08-07T15:09:23;7.65;;;4.03;;
29776;SDS011;16677;52.224;7.484;2023-08-07T15:11:50;10.90;;;6.90;;
29776;SDS011;16677;52.224;7.484;2023-08-07T15:14:18;10.43;;;5.63;;
29776;SDS011;16677;52.224;7.484;2023-08-07T15:16:45;43.40;;;23.30;;
29776;SDS011;16677;52.224;7.484;2023-08-07T15:19:12;20.07;;;11.50;;
29776;SDS011;16677;52.224;7.484;2023-08-07T15:21:39;36.13;;;16.57;;
29776;SDS011;16677;52.224;7.484;2023-08-07T15:24:06;11.73;;;7.67;;
29776;SDS011;16677;52.224;7.484;2023-08-07T15:26:34;20.37;;;8.97;;
29776;SDS011;16677;52.224;7.484;2023-08-07T15:29:01;13.20;;;7.37;;